createdAt,value
2022-09-23T00:02:17.233Z,9.1
2022-09-23T00:07:17.202Z,9.0
2022-09-23T00:12:17.188Z,8.9
2022-09-23T00:17:17.195Z,8.9
2022-09-23T00:22:17.219Z,8.9
2022-09-23T00:27:17.196Z,8.8
2022-09-23T00:32:17.203Z,8.7
2022-09-23T00:37:17.220Z,8.7
2022-09-23T00:42:17.216Z,8.7
2022-09-23T00:47:17.213Z,8.7
2022-09-23T00:52:17.236Z,8.7
2022-09-23T00:57:17.213Z,8.7
2022-09-23T01:02:17.278Z,8.7
2022-09-23T01:07:17.236Z,8.7
2022-09-23T01:12:17.224Z,8.6
2022-09-23T01:17:17.231Z,8.6
2022-09-23T01:22:17.257Z,8.5
2022-09-23T01:27:17.236Z,8.4
2022-09-23T01:32:17.235Z,8.4
2022-09-23T01:37:17.254Z,8.3
2022-09-23T01:42:17.247Z,8.3
2022-09-23T01:47:17.253Z,8.2
2022-09-23T01:52:17.264Z,8.2
2022-09-23T01:57:17.256Z,8.2
2022-09-23T02:02:17.381Z,8.1
2022-09-23T02:07:17.264Z,8.1
2022-09-23T02:12:17.265Z,8.0
2022-09-23T02:17:17.263Z,7.9
2022-09-23T02:22:17.288Z,7.9
2022-09-23T02:27:17.269Z,7.8
2022-09-23T02:32:17.274Z,7.8
2022-09-23T02:37:17.292Z,7.8
2022-09-23T02:42:17.278Z,7.8
2022-09-23T02:47:17.281Z,7.9
2022-09-23T02:52:17.302Z,7.9
2022-09-23T02:57:17.286Z,7.9
2022-09-23T03:02:17.410Z,7.9
2022-09-23T03:07:17.302Z,7.9
2022-09-23T03:12:17.293Z,7.8
2022-09-23T03:17:17.305Z,7.7
2022-09-23T03:22:17.318Z,7.7
2022-09-23T03:27:17.306Z,7.7
2022-09-23T03:32:17.312Z,7.6
2022-09-23T03:37:17.324Z,7.6
2022-09-23T03:42:17.314Z,7.6
2022-09-23T03:47:17.311Z,7.6
2022-09-23T03:52:17.333Z,7.5
2022-09-23T03:57:17.318Z,7.4
2022-09-23T04:02:17.379Z,7.4
2022-09-23T04:07:17.343Z,7.4
2022-09-23T04:12:17.328Z,7.4
2022-09-23T04:17:17.335Z,7.5
2022-09-23T04:22:17.356Z,7.5
2022-09-23T04:27:17.340Z,7.5
2022-09-23T04:32:17.347Z,7.5
2022-09-23T04:37:17.357Z,7.5
2022-09-23T04:42:17.347Z,7.5
2022-09-23T04:47:17.346Z,7.5
2022-09-23T04:52:17.364Z,7.5
2022-09-23T04:57:17.354Z,7.4
2022-09-23T05:02:17.403Z,7.4
2022-09-23T05:07:17.375Z,7.4
2022-09-23T05:12:17.364Z,7.4
2022-09-23T05:17:17.377Z,7.4
2022-09-23T05:22:17.392Z,7.4
2022-09-23T05:27:17.373Z,7.5
2022-09-23T05:32:17.386Z,7.6
2022-09-23T05:37:17.417Z,7.7
2022-09-23T05:42:17.378Z,7.8
2022-09-23T05:47:17.380Z,7.9
2022-09-23T05:52:17.404Z,8.0
2022-09-23T05:57:17.399Z,8.1
2022-09-23T06:02:17.435Z,8.1
2022-09-23T06:07:17.402Z,8.2
2022-09-23T06:12:17.404Z,8.3
2022-09-23T06:17:17.396Z,8.4
2022-09-23T06:22:17.419Z,8.6
2022-09-23T06:27:17.404Z,8.7
2022-09-23T06:32:17.415Z,8.8
2022-09-23T06:37:20.130Z,9.1
2022-09-23T06:42:17.419Z,9.2
2022-09-23T06:47:17.421Z,9.4
2022-09-23T06:52:17.437Z,9.4
2022-09-23T06:57:17.424Z,9.6
2022-09-23T07:02:17.585Z,9.7
2022-09-23T07:07:17.442Z,9.9
2022-09-23T07:12:17.431Z,10.1
2022-09-23T07:17:17.443Z,10.3
2022-09-23T07:22:17.460Z,10.5
2022-09-23T07:27:17.441Z,10.8
2022-09-23T07:32:17.470Z,10.8
2022-09-23T07:37:17.463Z,11.0
2022-09-23T07:42:17.456Z,11.2
2022-09-23T07:47:17.470Z,11.4
2022-09-23T07:52:17.483Z,11.6
2022-09-23T07:57:17.460Z,11.9
2022-09-23T08:02:17.514Z,12.1
2022-09-23T08:07:17.490Z,12.2
2022-09-23T08:12:17.466Z,12.3
2022-09-23T08:17:17.466Z,12.4
2022-09-23T08:22:17.495Z,12.3
2022-09-23T08:27:17.472Z,12.4
2022-09-23T08:32:17.475Z,12.4
2022-09-23T08:37:17.489Z,12.5
2022-09-23T08:42:17.482Z,12.8
2022-09-23T08:47:17.491Z,13.2
2022-09-23T08:52:17.521Z,13.7
2022-09-23T08:57:17.494Z,14.1
2022-09-23T09:02:17.604Z,14.2
2022-09-23T09:07:35.626Z,14.3
2022-09-23T09:12:17.516Z,14.4
2022-09-23T09:17:17.502Z,14.5
2022-09-23T09:22:17.522Z,14.8
2022-09-23T09:27:17.511Z,14.9
2022-09-23T09:32:17.513Z,14.9
2022-09-23T09:37:17.529Z,15.1
2022-09-23T09:42:17.517Z,15.1
2022-09-23T09:47:17.528Z,15.4
2022-09-23T09:52:17.547Z,15.5
2022-09-23T09:57:17.480Z,15.6
2022-09-23T10:02:17.470Z,15.7
2022-09-23T10:07:17.488Z,15.8
2022-09-23T10:12:17.473Z,15.9
2022-09-23T10:17:17.485Z,16.0
2022-09-23T10:22:17.499Z,16.0
2022-09-23T10:27:17.487Z,16.0
2022-09-23T10:32:17.489Z,16.0
2022-09-23T10:37:17.512Z,16.3
2022-09-23T10:42:17.504Z,16.4
2022-09-23T10:47:17.509Z,16.4
2022-09-23T10:52:17.544Z,16.5
2022-09-23T10:57:17.517Z,16.6
2022-09-23T11:02:17.525Z,16.8
2022-09-23T11:07:17.544Z,16.6
2022-09-23T11:12:17.541Z,16.7
2022-09-23T11:17:17.541Z,16.7
2022-09-23T11:22:17.558Z,16.6
2022-09-23T11:27:17.551Z,16.6
2022-09-23T11:32:17.550Z,16.5
2022-09-23T11:37:17.565Z,16.9
2022-09-23T11:42:17.560Z,16.9
2022-09-23T11:47:17.561Z,17.0
2022-09-23T11:52:17.586Z,16.9
2022-09-23T11:57:17.573Z,16.7
2022-09-23T12:02:20.971Z,16.8
2022-09-23T12:07:17.599Z,17.0
2022-09-23T12:12:17.586Z,17.0
2022-09-23T12:17:17.590Z,17.3
2022-09-23T12:22:17.613Z,17.4
2022-09-23T12:27:17.591Z,17.5
2022-09-23T12:32:17.600Z,17.7
2022-09-23T12:37:17.613Z,17.8
2022-09-23T12:42:17.603Z,17.9
2022-09-23T12:47:17.612Z,17.9
2022-09-23T12:52:17.674Z,17.8
2022-09-23T12:57:17.612Z,17.7
2022-09-23T13:02:17.693Z,17.8
2022-09-23T13:07:17.650Z,17.8
2022-09-23T13:12:17.624Z,17.8
2022-09-23T13:17:17.628Z,17.7
2022-09-23T13:22:17.656Z,17.6
2022-09-23T13:27:17.642Z,17.7
2022-09-23T13:32:17.643Z,17.7
2022-09-23T13:37:22.017Z,17.8
2022-09-23T13:42:17.653Z,17.8
2022-09-23T13:47:17.652Z,17.8
2022-09-23T13:52:17.682Z,17.7
2022-09-23T13:57:17.661Z,17.8
2022-09-23T14:02:17.743Z,17.8
2022-09-23T14:07:17.685Z,17.7
2022-09-23T14:12:17.675Z,17.8
2022-09-23T14:17:17.677Z,17.8
2022-09-23T14:22:17.701Z,17.6
2022-09-23T14:27:17.681Z,17.5
2022-09-23T14:32:17.697Z,17.5
2022-09-23T14:37:17.702Z,17.4
2022-09-23T14:42:17.691Z,17.5
2022-09-23T14:47:17.692Z,17.4
2022-09-23T14:52:17.727Z,17.4
2022-09-23T14:57:17.703Z,17.4
2022-09-23T15:02:17.708Z,17.2
2022-09-23T15:07:17.989Z,17.1
2022-09-23T15:12:17.719Z,17.0
2022-09-23T15:17:17.718Z,17.0
2022-09-23T15:22:17.745Z,16.9
2022-09-23T15:27:17.731Z,16.8
2022-09-23T15:32:17.736Z,16.8
2022-09-23T15:37:17.740Z,16.7
2022-09-23T15:42:17.743Z,16.6
2022-09-23T15:47:17.739Z,16.6
2022-09-23T15:52:17.766Z,16.5
2022-09-23T15:57:17.745Z,16.5
2022-09-23T16:02:17.821Z,16.4
2022-09-23T16:07:18.120Z,16.3
2022-09-23T16:12:17.764Z,16.3
2022-09-23T16:17:17.759Z,16.3
2022-09-23T16:22:17.780Z,16.3
2022-09-23T16:27:17.769Z,16.2
2022-09-23T16:32:22.030Z,16.1
2022-09-23T16:37:17.781Z,16.0
2022-09-23T16:42:17.793Z,16.0
2022-09-23T16:47:17.787Z,15.9
2022-09-23T16:52:17.804Z,15.9
2022-09-23T16:57:17.784Z,15.7
2022-09-23T17:02:17.864Z,15.7
2022-09-23T17:07:17.801Z,15.6
2022-09-23T17:12:17.807Z,15.6
2022-09-23T17:17:17.806Z,15.5
2022-09-23T17:22:17.828Z,15.4
2022-09-23T17:27:17.802Z,15.3
2022-09-23T17:32:17.817Z,15.4
2022-09-23T17:37:17.813Z,15.3
2022-09-23T17:42:18.040Z,15.2
2022-09-23T17:47:17.814Z,15.1
2022-09-23T17:52:17.842Z,15.0
2022-09-23T17:57:17.823Z,14.9
2022-09-23T18:02:17.877Z,14.9
2022-09-23T18:07:17.831Z,14.8
2022-09-23T18:12:17.848Z,14.7
2022-09-23T18:17:17.835Z,14.6
2022-09-23T18:22:17.854Z,14.6
2022-09-23T18:27:17.843Z,14.4
2022-09-23T18:32:17.888Z,14.4
2022-09-23T18:37:17.852Z,14.3
2022-09-23T18:42:17.868Z,14.2
2022-09-23T18:47:17.884Z,14.2
2022-09-23T18:52:17.877Z,14.1
2022-09-23T18:57:17.863Z,14.1
2022-09-23T19:02:17.928Z,14.1
2022-09-23T19:07:17.866Z,14.0
2022-09-23T19:12:17.975Z,14.0
2022-09-23T19:17:17.890Z,13.9
2022-09-23T19:22:18.002Z,13.9
2022-09-23T19:27:17.876Z,13.9
2022-09-23T19:32:17.883Z,13.8
2022-09-23T19:37:17.885Z,13.8
2022-09-23T19:42:17.995Z,13.8
2022-09-23T19:47:17.998Z,13.8
2022-09-23T19:52:17.918Z,13.8
2022-09-23T19:57:17.903Z,13.8
2022-09-23T20:02:17.939Z,13.8
2022-09-23T20:07:17.904Z,13.8
2022-09-23T20:12:17.919Z,13.7
2022-09-23T20:17:17.912Z,13.7
2022-09-23T20:22:18.030Z,13.7
2022-09-23T20:27:17.909Z,13.8
2022-09-23T20:32:17.925Z,13.8
2022-09-23T20:37:17.928Z,13.8
2022-09-23T20:42:18.038Z,13.9
2022-09-23T20:47:17.929Z,14.0
2022-09-23T20:52:17.949Z,14.0
2022-09-23T20:57:17.930Z,14.0
2022-09-23T21:02:18.026Z,14.0
2022-09-23T21:07:17.941Z,14.1
2022-09-23T21:12:18.059Z,14.0
2022-09-23T21:17:17.943Z,14.0
2022-09-23T21:22:17.969Z,14.0
2022-09-23T21:27:17.956Z,13.9
2022-09-23T21:32:17.950Z,13.9
2022-09-23T21:37:17.958Z,13.9
2022-09-23T21:42:17.970Z,13.9
2022-09-23T21:47:17.968Z,13.9
2022-09-23T21:52:17.982Z,13.9
2022-09-23T21:57:17.968Z,13.9
2022-09-23T22:02:17.984Z,13.8
2022-09-23T22:07:17.971Z,13.8
2022-09-23T22:12:17.988Z,13.8
2022-09-23T22:17:17.984Z,13.8
2022-09-23T22:22:18.070Z,13.9
2022-09-23T22:27:17.987Z,13.8
2022-09-23T22:32:17.992Z,13.8
2022-09-23T22:37:17.997Z,13.8
2022-09-23T22:42:18.012Z,13.8
2022-09-23T22:47:18.166Z,13.8
2022-09-23T22:52:18.025Z,13.7
2022-09-23T22:57:18.000Z,13.7
2022-09-23T23:02:18.016Z,13.7
2022-09-23T23:07:18.010Z,13.7
2022-09-23T23:12:18.025Z,13.7
2022-09-23T23:17:18.012Z,13.7
2022-09-23T23:22:18.142Z,13.7
2022-09-23T23:27:18.018Z,13.7
2022-09-23T23:32:18.027Z,13.7
2022-09-23T23:37:20.919Z,13.6
2022-09-23T23:42:18.138Z,13.6
2022-09-23T23:47:18.036Z,13.6
2022-09-23T23:52:18.049Z,13.6
2022-09-23T23:57:18.066Z,13.6
